createdAt,value
2018-07-24T20:37:46.026Z,28.40
2018-07-24T20:40:15.139Z,28.43
2018-07-24T20:42:45.268Z,28.44
2018-07-24T20:45:16.438Z,28.44
2018-07-24T20:47:46.570Z,28.47
2018-07-24T20:50:15.729Z,28.38
2018-07-24T20:52:48.368Z,28.44
2018-07-24T20:55:17.527Z,28.48
2018-07-24T20:57:50.322Z,28.47
2018-07-24T21:00:20.624Z,28.49
2018-07-24T21:02:49.814Z,28.53
2018-07-24T21:05:18.982Z,28.49
2018-07-24T21:07:48.111Z,28.47
2018-07-24T21:10:21.123Z,28.45
2018-07-24T21:12:50.831Z,28.43
2018-07-24T21:15:20.183Z,28.39
2018-07-24T21:17:49.330Z,28.39
2018-07-24T21:20:19.529Z,28.35
2018-07-24T21:22:48.668Z,28.28
2018-07-24T21:25:17.952Z,28.31
2018-07-24T21:27:47.046Z,28.32
2018-07-24T21:30:19.500Z,28.30
2018-07-24T21:32:48.702Z,28.32
2018-07-24T21:35:18.382Z,28.29
2018-07-24T21:37:53.174Z,28.29
2018-07-24T21:40:30.046Z,28.29
2018-07-24T21:42:59.475Z,28.29
2018-07-24T21:45:30.779Z,28.25
2018-07-24T21:48:00.692Z,28.26
2018-07-24T21:50:34.618Z,28.25
2018-07-24T21:53:05.710Z,28.26
2018-07-24T21:55:36.915Z,28.27
2018-07-24T21:58:10.357Z,28.30
2018-07-24T22:00:42.685Z,28.32
2018-07-24T22:03:12.047Z,28.20
2018-07-24T22:05:43.200Z,28.25
2018-07-24T22:08:14.370Z,28.23
2018-07-24T22:10:43.532Z,28.23
2018-07-24T22:13:12.771Z,28.25
2018-07-24T22:15:42.942Z,28.28
2018-07-24T22:18:12.078Z,28.28
2018-07-24T22:20:43.398Z,28.28
2018-07-24T22:23:13.514Z,28.20
2018-07-24T22:25:42.712Z,28.19
2018-07-24T22:28:17.627Z,28.17
2018-07-24T22:30:46.780Z,28.19
2018-07-24T22:33:22.282Z,28.18
2018-07-24T22:35:51.828Z,28.17
2018-07-24T22:38:20.910Z,28.12
2018-07-24T22:40:50.106Z,28.12
2018-07-24T22:43:19.190Z,28.12
2018-07-24T22:45:50.454Z,28.16
2018-07-24T22:48:19.642Z,28.12
2018-07-24T22:50:48.767Z,28.14
2018-07-24T22:53:22.846Z,28.14
2018-07-24T22:55:52.985Z,28.14
2018-07-24T22:58:24.132Z,28.05
2018-07-24T23:00:56.505Z,28.04
2018-07-24T23:03:31.212Z,28.12
2018-07-24T23:06:05.210Z,28.10
2018-07-24T23:08:36.392Z,28.12
2018-07-24T23:11:09.254Z,28.13
2018-07-24T23:13:38.354Z,28.13
2018-07-24T23:16:13.591Z,28.13
2018-07-24T23:18:44.734Z,28.13
2018-07-24T23:21:13.827Z,28.15
2018-07-24T23:23:42.906Z,28.13
2018-07-24T23:26:17.156Z,28.11
2018-07-24T23:28:46.355Z,28.14
2018-07-24T23:31:17.610Z,28.16
2018-07-24T23:33:47.770Z,28.19
2018-07-24T23:36:22.128Z,28.18
2018-07-24T23:38:51.327Z,28.18
2018-07-24T23:41:22.450Z,28.17
2018-07-24T23:43:52.601Z,28.15
2018-07-24T23:46:21.799Z,28.16
2018-07-24T23:48:50.866Z,28.18
2018-07-24T23:51:25.913Z,28.17
2018-07-24T23:54:06.402Z,28.14
2018-07-24T23:56:40.090Z,28.14
2018-07-24T23:59:09.178Z,28.18
